Time;durP1;ratioP1;P1;durP2;ratioP2;P2;SDS_P1;SDS_P2;PMS_P1;PMS_P2;Temp;Humidity;BMP_temperature;BMP_pressure;BME280_temperature;BME280_humidity;BME280_pressure;Samples;Min_cycle;Max_cycle;Signal;HPM_P1;HPM_P2
2024/03/23 00:00:37;;;;;;;8.27;2.07;;;;;;;3.93;73.73;99480.56;5011215;28;20818;-73
2024/03/23 00:03:07;;;;;;;10.40;1.90;;;;;;;3.92;73.79;99481.44;5011069;28;20439;-74
2024/03/23 00:05:39;;;;;;;8.07;2.20;;;;;;;3.89;73.74;99475.44;5011185;28;20481;-73
2024/03/23 00:08:09;;;;;;;9.70;2.30;;;;;;;3.88;73.81;99481.50;5011311;28;20455;-74
2024/03/23 00:10:40;;;;;;;7.40;2.00;;;;;;;3.86;73.92;99478.09;5011280;28;20451;-76
2024/03/23 00:13:09;;;;;;;7.23;1.80;;;;;;;3.85;73.65;99484.16;5011429;28;20448;-75
2024/03/23 00:15:40;;;;;;;8.73;1.90;;;;;;;3.83;73.68;99488.50;5012669;28;20447;-74
2024/03/23 00:18:10;;;;;;;6.73;1.30;;;;;;;3.81;73.79;99485.06;5011628;28;20550;-77
2024/03/23 00:20:40;;;;;;;11.63;2.10;;;;;;;3.78;73.55;99485.13;4993248;28;20510;-75
2024/03/23 00:23:10;;;;;;;6.87;1.80;;;;;;;3.76;73.67;99492.06;4991526;28;20440;-76
2024/03/23 00:25:41;;;;;;;4.80;1.50;;;;;;;3.74;73.51;99486.91;4991632;28;20609;-76
2024/03/23 00:28:10;;;;;;;5.73;1.57;;;;;;;3.71;73.58;99486.94;4991774;28;20457;-76
2024/03/23 00:30:42;;;;;;;8.53;1.63;;;;;;;3.70;73.60;99491.28;4992405;28;20456;-76
2024/03/23 00:33:11;;;;;;;5.00;1.67;;;;;;;3.68;73.68;99492.16;4991473;28;20448;-75
2024/03/23 00:35:42;;;;;;;4.53;1.37;;;;;;;3.66;73.43;99489.59;4995206;28;20448;-76
2024/03/23 00:38:13;;;;;;;9.10;1.57;;;;;;;3.64;73.59;99488.78;5012590;28;20445;-75
2024/03/23 00:40:42;;;;;;;7.13;2.23;;;;;;;3.63;73.50;99489.66;5011885;28;20457;-76
2024/03/23 00:43:13;;;;;;;7.97;1.93;;;;;;;3.62;73.38;99487.94;5012097;28;20854;-76
2024/03/23 00:45:44;;;;;;;6.83;1.90;;;;;;;3.60;73.42;99494.88;5012534;28;20479;-75
2024/03/23 00:48:15;;;;;;;13.17;1.87;;;;;;;3.58;73.33;99495.75;5015802;28;20457;-75
2024/03/23 00:50:44;;;;;;;10.53;1.80;;;;;;;3.56;73.39;99488.03;5015889;28;20454;-82
2024/03/23 00:53:14;;;;;;;8.83;1.80;;;;;;;3.53;73.49;99488.09;5016160;28;20455;-84
2024/03/23 00:55:40;;;;;;;5.53;1.47;;;;;;;3.48;73.27;99482.13;5017211;28;20460;-81
2024/03/23 00:58:07;;;;;;;11.23;1.60;;;;;;;3.49;73.22;99500.19;5016091;28;20447;-81
2024/03/23 01:00:33;;;;;;;8.00;1.73;;;;;;;3.47;73.20;99503.69;5016240;28;20203;-82
2024/03/23 01:03:00;;;;;;;7.43;1.53;;;;;;;3.46;72.78;99496.78;5016236;28;20446;-80
2024/03/23 01:05:26;;;;;;;8.33;1.33;;;;;;;3.45;73.11;99492.50;5015832;28;20220;-82
2024/03/23 01:07:52;;;;;;;8.90;2.03;;;;;;;3.42;73.07;99495.16;5015970;28;20465;-81
2024/03/23 01:10:20;;;;;;;5.37;1.60;;;;;;;3.40;73.09;99495.16;5015656;28;20579;-84
2024/03/23 01:12:47;;;;;;;4.70;1.23;;;;;;;3.39;72.87;99495.19;5016147;28;20456;-81
2024/03/23 01:15:13;;;;;;;5.57;1.57;;;;;;;3.38;72.89;99496.03;5016146;28;20454;-82
2024/03/23 01:17:39;;;;;;;7.00;1.97;;;;;;;3.36;72.96;99495.22;5015749;28;20451;-81
2024/03/23 01:20:06;;;;;;;7.73;2.47;;;;;;;3.33;72.91;99500.44;5015026;28;20203;-73
2024/03/23 01:22:33;;;;;;;7.10;1.80;;;;;;;3.31;72.88;99497.03;5013682;28;20465;-73
2024/03/23 01:24:59;;;;;;;4.97;1.47;;;;;;;3.31;72.99;99504.78;5013320;28;20483;-74
2024/03/23 01:27:27;;;;;;;5.77;1.40;;;;;;;3.30;72.78;99503.94;5013663;28;20769;-74
2024/03/23 01:29:53;;;;;;;5.80;1.57;;;;;;;3.28;72.64;99503.09;5013544;28;20203;-73
2024/03/23 01:32:20;;;;;;;5.30;1.27;;;;;;;3.25;72.27;99501.38;5013595;28;20453;-73
2024/03/23 01:34:46;;;;;;;6.30;1.40;;;;;;;3.23;72.85;99504.88;5013536;28;20199;-73
2024/03/23 01:37:13;;;;;;;4.30;1.23;;;;;;;3.21;72.42;99507.50;5013590;28;20815;-74
2024/03/23 01:39:39;;;;;;;3.93;1.17;;;;;;;3.20;72.44;99504.91;5013677;28;20197;-73
2024/03/23 01:42:06;;;;;;;5.67;1.63;;;;;;;3.19;72.61;99506.63;5013229;28;20465;-73
2024/03/23 01:44:33;;;;;;;6.70;1.53;;;;;;;3.18;72.59;99507.50;5013095;28;20609;-73
2024/03/23 01:47:00;;;;;;;4.27;1.47;;;;;;;3.16;72.46;99504.09;5013495;28;20447;-73
2024/03/23 01:49:26;;;;;;;3.57;1.37;;;;;;;3.12;72.33;99510.16;5013164;28;20444;-73
2024/03/23 01:51:53;;;;;;;6.20;1.70;;;;;;;3.12;72.36;99509.31;5013073;28;20466;-74
2024/03/23 01:54:19;;;;;;;7.07;1.83;;;;;;;3.10;72.52;99508.47;5013999;28;20477;-73
2024/03/23 01:56:46;;;;;;;5.20;1.43;;;;;;;3.09;72.44;99512.78;5012677;28;20527;-73
2024/03/23 01:59:15;;;;;;;4.10;1.30;;;;;;;3.08;72.33;99511.09;5012922;28;20446;-77
2024/03/23 02:01:43;;;;;;;6.77;1.40;;;;;;;3.06;72.38;99512.81;5013580;28;20478;-77
2024/03/23 02:04:09;;;;;;;7.87;1.53;;;;;;;3.03;72.31;99518.88;5013273;28;20449;-78
2024/03/23 02:06:36;;;;;;;7.70;1.63;;;;;;;3.00;72.10;99507.75;5013446;28;20478;-77
2024/03/23 02:09:03;;;;;;;9.27;1.57;;;;;;;3.01;72.30;99514.59;5013300;28;20442;-76
2024/03/23 02:11:30;;;;;;;5.03;1.17;;;;;;;2.99;72.61;99511.22;5013281;28;20448;-76
2024/03/23 02:13:56;;;;;;;4.40;1.47;;;;;;;2.97;72.43;99510.38;5013135;28;20430;-77
2024/03/23 02:16:23;;;;;;;5.13;1.60;;;;;;;2.95;72.21;99512.09;5013580;28;20544;-76
2024/03/23 02:18:50;;;;;;;7.07;1.23;;;;;;;2.93;72.34;99500.94;5013038;28;20198;-77
2024/03/23 02:21:17;;;;;;;8.50;1.60;;;;;;;2.92;71.86;99509.56;5013124;28;21002;-78
2024/03/23 02:23:44;;;;;;;3.97;1.37;;;;;;;2.90;72.15;99506.13;5013212;28;20533;-77
2024/03/23 02:26:11;;;;;;;3.77;1.17;;;;;;;2.88;72.10;99508.75;5012740;28;20487;-77
2024/03/23 02:28:37;;;;;;;4.43;1.30;;;;;;;2.88;72.14;99515.66;5011658;28;20449;-76
2024/03/23 02:31:04;;;;;;;3.33;1.10;;;;;;;2.86;72.26;99504.47;5013987;28;20440;-82
2024/03/23 02:33:30;;;;;;;6.23;1.50;;;;;;;2.85;72.19;99507.94;5014591;28;20208;-80
2024/03/23 02:35:58;;;;;;;4.43;1.70;;;;;;;2.82;72.07;99516.56;5014154;28;20906;-81
2024/03/23 02:38:24;;;;;;;8.53;1.40;;;;;;;2.80;71.97;99514.00;5014093;28;20203;-81
2024/03/23 02:40:52;;;;;;;7.43;1.37;;;;;;;2.77;71.99;99516.59;5014363;28;20517;-80
2024/03/23 02:43:18;;;;;;;6.67;1.80;;;;;;;2.75;72.10;99508.00;5014116;28;20286;-82
2024/03/23 02:45:45;;;;;;;4.60;1.67;;;;;;;2.74;72.04;99516.66;5014014;28;20963;-81
2024/03/23 02:48:11;;;;;;;5.47;1.00;;;;;;;2.72;71.97;99518.38;5014477;28;20217;-80
2024/03/23 02:50:37;;;;;;;4.20;1.40;;;;;;;2.70;71.96;99508.94;5013851;28;20809;-79
2024/03/23 02:53:04;;;;;;;4.67;1.50;;;;;;;2.69;71.98;99513.25;5014170;28;20203;-80
2024/03/23 02:55:30;;;;;;;6.17;1.30;;;;;;;2.68;71.97;99515.88;5013528;28;20466;-79
2024/03/23 02:58:01;;;;;;;10.00;1.77;;;;;;;2.66;72.00;99513.28;5014852;28;20444;-81
2024/03/23 03:00:28;;;;;;;4.97;1.30;;;;;;;2.60;71.83;99509.03;5014040;28;20491;-81
2024/03/23 03:02:55;;;;;;;6.03;1.37;;;;;;;2.63;71.88;99526.22;5013951;28;20445;-80
2024/03/23 03:05:22;;;;;;;7.90;1.40;;;;;;;2.60;71.96;99515.94;5013979;28;21002;-81
2024/03/23 03:07:48;;;;;;;5.10;1.30;;;;;;;2.59;71.93;99511.66;5014836;28;20462;-81
2024/03/23 03:10:16;;;;;;;4.27;1.20;;;;;;;2.58;71.88;99520.25;5012532;28;20458;-73
2024/03/23 03:12:42;;;;;;;5.90;1.50;;;;;;;2.56;72.06;99509.09;5011680;28;20198;-73
2024/03/23 03:15:10;;;;;;;3.43;0.97;;;;;;;2.56;72.15;99511.69;5011736;28;20897;-73
2024/03/23 03:17:36;;;;;;;7.50;1.37;;;;;;;2.54;72.02;99513.41;5012592;28;20441;-73
2024/03/23 03:20:06;;;;;;;3.70;1.30;;;;;;;2.53;72.30;99506.53;5013103;28;20456;-73
2024/03/23 03:22:33;;;;;;;3.73;1.37;;;;;;;2.48;72.03;99504.00;5013233;28;20214;-74
2024/03/23 03:25:00;;;;;;;7.53;1.40;;;;;;;2.49;72.08;99504.84;5012694;28;20451;-74
2024/03/23 03:27:27;;;;;;;7.10;1.40;;;;;;;2.48;72.16;99508.31;5013212;28;20448;-74
2024/03/23 03:29:53;;;;;;;9.93;1.93;;;;;;;2.47;72.23;99507.47;5012078;28;20449;-73
2024/03/23 03:32:21;;;;;;;5.83;1.43;;;;;;;2.46;72.04;99504.91;5011537;28;20457;-73
2024/03/23 03:34:47;;;;;;;7.43;1.67;;;;;;;2.44;72.08;99507.47;5011805;28;20206;-73
2024/03/23 03:37:14;;;;;;;4.93;1.33;;;;;;;2.41;72.13;99502.34;5011524;28;20454;-74
2024/03/23 03:39:40;;;;;;;2.67;0.90;;;;;;;2.37;72.28;99501.53;5011659;28;20285;-74
2024/03/23 03:42:07;;;;;;;6.73;1.73;;;;;;;2.39;72.28;99522.19;5011363;28;20867;-74
2024/03/23 03:44:33;;;;;;;7.67;1.60;;;;;;;2.37;72.14;99516.16;5011635;28;20291;-74
2024/03/23 03:47:00;;;;;;;6.93;1.70;;;;;;;2.35;72.04;99513.59;5011325;28;21070;-73
2024/03/23 03:49:27;;;;;;;6.80;1.70;;;;;;;2.35;71.92;99515.31;5011537;28;20201;-74
2024/03/23 03:51:54;;;;;;;6.60;1.60;;;;;;;2.33;72.08;99525.66;5011028;28;20475;-73
2024/03/23 03:54:20;;;;;;;7.53;1.53;;;;;;;2.31;72.28;99519.66;5012358;28;20448;-74
2024/03/23 03:56:47;;;;;;;6.73;1.47;;;;;;;2.29;72.29;99523.97;5011535;28;20472;-75
2024/03/23 03:59:14;;;;;;;5.20;1.50;;;;;;;2.29;72.32;99517.97;5011404;28;20451;-75
2024/03/23 04:01:41;;;;;;;10.87;1.63;;;;;;;2.27;72.45;99515.41;5011343;28;20456;-74
2024/03/23 04:04:07;;;;;;;6.10;2.00;;;;;;;2.25;72.31;99517.13;5011373;28;20938;-75
2024/03/23 04:06:35;;;;;;;7.93;1.97;;;;;;;2.24;72.29;99525.72;5012062;28;20480;-75
2024/03/23 04:09:01;;;;;;;6.93;1.83;;;;;;;2.22;72.35;99519.75;5011565;28;20615;-75
2024/03/23 04:11:28;;;;;;;5.70;1.60;;;;;;;2.20;72.47;99521.47;5011304;28;20525;-74
2024/03/23 04:13:53;;;;;;;6.17;1.40;;;;;;;2.20;72.48;99528.38;5011315;28;20202;-72
2024/03/23 04:16:30;;;;;;;7.07;1.73;;;;;;;2.19;72.29;99527.53;5011075;28;20477;-75
2024/03/23 04:18:56;;;;;;;7.67;1.77;;;;;;;2.18;72.40;99535.25;5011268;28;20202;-74
2024/03/23 04:21:23;;;;;;;8.73;1.50;;;;;;;2.15;72.25;99528.41;5013627;28;20448;-74
2024/03/23 04:23:50;;;;;;;5.53;1.57;;;;;;;2.14;72.57;99526.69;5015076;28;20253;-74
2024/03/23 04:26:17;;;;;;;7.47;1.50;;;;;;;2.11;72.46;99530.16;5014798;28;20557;-75
2024/03/23 04:28:43;;;;;;;6.93;1.60;;;;;;;2.11;72.59;99534.47;5014754;28;20440;-74
2024/03/23 04:31:10;;;;;;;6.57;1.40;;;;;;;2.10;72.63;99535.31;5014874;28;20471;-75
2024/03/23 04:33:36;;;;;;;8.30;1.80;;;;;;;2.09;72.54;99536.19;5014845;28;20209;-75
2024/03/23 04:36:03;;;;;;;8.37;2.47;;;;;;;2.07;72.56;99528.44;5014693;28;20450;-75
2024/03/23 04:38:30;;;;;;;7.23;1.30;;;;;;;2.05;72.68;99530.22;5014806;28;20206;-75
2024/03/23 04:40:59;;;;;;;5.47;1.47;;;;;;;2.06;73.05;99538.78;5016127;28;20445;-74
2024/03/23 04:43:27;;;;;;;11.50;1.83;;;;;;;2.04;72.65;99535.38;5014670;28;20444;-75
2024/03/23 04:45:54;;;;;;;8.43;2.27;;;;;;;2.03;72.52;99531.94;5014479;28;20489;-72
2024/03/23 04:48:22;;;;;;;8.67;1.73;;;;;;;2.01;72.67;99528.50;5014628;28;20879;-73
2024/03/23 04:50:50;;;;;;;11.07;1.80;;;;;;;2.00;72.73;99534.53;5015669;28;20814;-82
2024/03/23 04:53:17;;;;;;;4.77;1.60;;;;;;;1.99;72.59;99526.81;5016367;28;20455;-82
2024/03/23 04:55:44;;;;;;;5.70;1.53;;;;;;;1.98;73.16;99523.38;5016117;28;20528;-80
2024/03/23 04:58:11;;;;;;;5.10;1.10;;;;;;;1.97;72.63;99531.13;5016268;28;20440;-81
2024/03/23 05:00:38;;;;;;;9.27;1.47;;;;;;;1.94;73.05;99532.00;5015296;28;20450;-75
2024/03/23 05:03:05;;;;;;;6.40;1.53;;;;;;;1.95;72.74;99522.53;5014230;28;20449;-75
2024/03/23 05:05:32;;;;;;;9.17;1.80;;;;;;;1.93;73.07;99520.84;5014579;28;20447;-73
2024/03/23 05:07:59;;;;;;;5.20;1.50;;;;;;;1.94;72.81;99521.69;5014364;28;20462;-74
2024/03/23 05:10:25;;;;;;;11.57;1.60;;;;;;;1.92;73.01;99524.28;5015225;28;20503;-81
2024/03/23 05:12:52;;;;;;;6.50;1.50;;;;;;;1.93;73.13;99526.00;5015789;28;20820;-82
2024/03/23 05:15:19;;;;;;;3.83;1.53;;;;;;;1.92;73.06;99529.44;5015736;28;20215;-78
2024/03/23 05:17:46;;;;;;;5.47;1.60;;;;;;;1.92;73.32;99528.56;5014450;28;20448;-83
2024/03/23 05:20:12;;;;;;;8.67;1.97;;;;;;;1.93;72.91;99523.44;5014971;28;20442;-82
2024/03/23 05:22:40;;;;;;;10.43;2.37;;;;;;;1.93;73.28;99531.16;5013507;28;20524;-80
2024/03/23 05:25:07;;;;;;;7.40;1.57;;;;;;;1.93;73.32;99525.13;5014384;28;20566;-81
2024/03/23 05:27:34;;;;;;;11.43;1.63;;;;;;;1.92;73.33;99529.44;5014513;28;20507;-80
2024/03/23 05:30:00;;;;;;;7.73;1.60;;;;;;;1.93;73.26;99536.31;5014214;28;20440;-77
2024/03/23 05:32:28;;;;;;;7.80;1.80;;;;;;;1.93;73.51;99531.16;5009414;28;20445;-78
2024/03/23 05:34:56;;;;;;;11.20;2.20;;;;;;;1.93;73.46;99526.00;5014037;28;20677;-78
2024/03/23 05:37:23;;;;;;;4.47;1.67;;;;;;;1.95;73.29;99538.03;5013362;28;20531;-78
2024/03/23 05:39:49;;;;;;;4.97;1.77;;;;;;;1.93;73.30;99531.16;5013161;28;20445;-78
2024/03/23 05:42:17;;;;;;;4.80;1.80;;;;;;;1.90;73.42;99531.19;5013244;28;20488;-78
2024/03/23 05:44:45;;;;;;;6.93;1.83;;;;;;;1.96;73.48;99534.56;5013237;28;20436;-78
2024/03/23 05:47:12;;;;;;;5.50;1.40;;;;;;;1.97;73.35;99541.44;5012949;28;20484;-78
2024/03/23 05:49:41;;;;;;;4.73;1.13;;;;;;;1.96;73.51;99535.44;5013293;28;20440;-78
2024/03/23 05:52:08;;;;;;;6.97;1.70;;;;;;;1.97;73.38;99536.28;5013038;28;20488;-78
2024/03/23 05:54:34;;;;;;;11.60;1.70;;;;;;;1.98;73.40;99533.69;5012905;28;20436;-77
2024/03/23 05:57:01;;;;;;;9.87;2.10;;;;;;;1.98;73.29;99528.53;5013036;28;20506;-78
2024/03/23 05:59:27;;;;;;;7.00;2.00;;;;;;;1.98;73.45;99525.94;5013420;28;20235;-77
2024/03/23 06:01:54;;;;;;;7.63;1.90;;;;;;;2.02;73.46;99529.38;5013062;28;20449;-77
2024/03/23 06:04:21;;;;;;;4.97;1.30;;;;;;;2.01;73.66;99528.50;5012954;28;20444;-79
2024/03/23 06:06:49;;;;;;;5.23;1.80;;;;;;;2.03;73.52;99520.75;5012719;28;20526;-79
2024/03/23 06:09:15;;;;;;;7.10;1.60;;;;;;;2.03;73.57;99526.78;5012630;28;20444;-75
2024/03/23 06:11:42;;;;;;;5.93;1.83;;;;;;;2.06;73.65;99526.75;5013847;28;20463;-81
2024/03/23 06:14:08;;;;;;;7.13;1.83;;;;;;;2.06;73.57;99524.16;5014123;28;20569;-81
2024/03/23 06:16:35;;;;;;;8.73;1.70;;;;;;;2.08;73.66;99530.19;5013780;28;20451;-81
2024/03/23 06:19:03;;;;;;;8.93;1.80;;;;;;;2.08;73.74;99526.75;5013696;28;20204;-82
2024/03/23 06:21:30;;;;;;;9.33;1.57;;;;;;;2.12;73.76;99537.00;5014042;28;20453;-83
2024/03/23 06:23:58;;;;;;;5.23;1.60;;;;;;;2.14;73.71;99534.44;5014102;28;20438;-81
2024/03/23 06:26:24;;;;;;;7.10;1.63;;;;;;;2.17;73.91;99538.72;5013743;28;20481;-82
2024/03/23 06:28:51;;;;;;;9.33;1.50;;;;;;;2.17;73.78;99529.25;5013904;28;20460;-80
2024/03/23 06:31:18;;;;;;;7.10;1.67;;;;;;;2.21;73.77;99540.38;5013819;28;20236;-82
2024/03/23 06:33:44;;;;;;;8.07;1.53;;;;;;;2.21;73.83;99543.81;5013496;28;20445;-83
2024/03/23 06:36:11;;;;;;;11.97;2.10;;;;;;;2.25;73.72;99540.38;5014115;28;20452;-82
2024/03/23 06:38:38;;;;;;;9.00;1.90;;;;;;;2.27;73.78;99543.78;5013393;28;20480;-80
2024/03/23 06:41:06;;;;;;;6.47;1.90;;;;;;;2.29;73.77;99539.44;5012215;28;20442;-75
2024/03/23 06:43:33;;;;;;;5.57;1.57;;;;;;;2.30;73.87;99536.03;5012304;28;20444;-79
2024/03/23 06:45:59;;;;;;;7.63;2.03;;;;;;;2.36;73.80;99551.44;5008733;28;20488;-76
2024/03/23 06:48:26;;;;;;;9.70;2.50;;;;;;;2.38;73.81;99541.94;5011957;28;20449;-77
2024/03/23 06:50:56;;;;;;;7.70;1.73;;;;;;;2.42;73.77;99545.38;5011282;28;20638;-76
2024/03/23 06:53:22;;;;;;;5.47;1.50;;;;;;;2.43;73.82;99552.25;5012137;28;20454;-76
2024/03/23 06:55:52;;;;;;;11.03;2.23;;;;;;;2.48;73.93;99549.63;5011011;28;20441;-78
2024/03/23 06:58:20;;;;;;;8.60;1.93;;;;;;;2.51;73.75;99560.78;5011549;28;20459;-77
2024/03/23 07:00:46;;;;;;;13.83;2.00;;;;;;;2.54;73.69;99559.91;5011326;28;20451;-77
2024/03/23 07:03:13;;;;;;;10.77;1.87;;;;;;;2.58;73.72;99556.41;5011908;28;20529;-79
2024/03/23 07:05:39;;;;;;;11.73;2.40;;;;;;;2.63;74.06;99562.38;5011295;28;20281;-77
2024/03/23 07:08:07;;;;;;;4.37;1.97;;;;;;;2.68;74.03;99559.78;5011127;28;20498;-78
2024/03/23 07:10:33;;;;;;;7.90;2.10;;;;;;;2.69;74.09;99553.72;5011303;28;20197;-78
2024/03/23 07:13:00;;;;;;;11.23;2.30;;;;;;;2.76;74.00;99555.38;5011615;28;20472;-78
2024/03/23 07:15:27;;;;;;;7.97;1.40;;;;;;;2.82;74.00;99557.91;5011923;28;20803;-78
2024/03/23 07:17:54;;;;;;;5.13;1.70;;;;;;;2.86;73.98;99561.28;5011311;28;20826;-79
2024/03/23 07:20:20;;;;;;;10.17;2.37;;;;;;;2.92;74.15;99556.06;5012493;28;20848;-82
2024/03/23 07:22:47;;;;;;;6.87;1.83;;;;;;;2.96;74.10;99563.78;5013421;28;20766;-81
2024/03/23 07:25:13;;;;;;;10.63;3.17;;;;;;;3.01;74.04;99562.00;5012931;28;20661;-82
2024/03/23 07:27:40;;;;;;;10.83;2.37;;;;;;;3.06;74.04;99547.28;5012997;28;20880;-82
2024/03/23 07:30:08;;;;;;;5.67;1.73;;;;;;;3.12;73.87;99563.59;5013042;28;20219;-84
2024/03/23 07:32:36;;;;;;;10.20;2.33;;;;;;;3.18;74.31;99558.34;5013578;28;20459;-80
2024/03/23 07:35:02;;;;;;;5.70;1.70;;;;;;;3.24;73.84;99558.25;5012862;28;20454;-80
2024/03/23 07:37:30;;;;;;;9.77;2.97;;;;;;;3.30;73.76;99563.38;5013153;28;20541;-83
2024/03/23 07:39:57;;;;;;;11.27;2.13;;;;;;;3.35;73.97;99558.13;5013597;28;20195;-82
2024/03/23 07:42:27;;;;;;;9.23;2.07;;;;;;;3.42;74.00;99558.03;5013058;28;20499;-81
2024/03/23 07:44:55;;;;;;;10.10;2.03;;;;;;;3.49;73.96;99558.81;5012672;28;20450;-80
2024/03/23 07:47:22;;;;;;;3.67;1.30;;;;;;;3.60;73.62;99558.66;5012688;28;20508;-86
2024/03/23 07:49:50;;;;;;;11.00;2.00;;;;;;;3.66;73.85;99568.94;5012288;28;20528;-75
2024/03/23 07:52:17;;;;;;;8.80;1.90;;;;;;;3.70;74.12;99563.69;5012634;28;20450;-78
2024/03/23 07:54:43;;;;;;;5.47;1.87;;;;;;;3.78;73.67;99567.91;5010188;28;20951;-75
2024/03/23 07:57:09;;;;;;;5.53;1.90;;;;;;;3.84;73.69;99562.63;5014262;28;20497;-76
2024/03/23 07:59:35;;;;;;;7.60;1.60;;;;;;;3.92;73.52;99558.19;5014334;28;20203;-76
2024/03/23 08:02:02;;;;;;;10.30;3.30;;;;;;;3.97;73.32;99566.75;5014524;28;20434;-77
2024/03/23 08:04:28;;;;;;;9.47;2.03;;;;;;;4.02;73.33;99564.97;5014561;28;20206;-76
2024/03/23 08:06:56;;;;;;;5.70;2.03;;;;;;;4.07;73.20;99568.34;5014350;28;20475;-75
2024/03/23 08:09:22;;;;;;;9.10;1.93;;;;;;;4.12;72.80;99566.53;5014326;28;20201;-75
2024/03/23 08:11:49;;;;;;;9.43;2.03;;;;;;;4.17;72.99;99562.13;5013932;28;20944;-76
2024/03/23 08:14:15;;;;;;;5.53;1.80;;;;;;;4.22;73.11;99558.63;5014300;28;20450;-76
2024/03/23 08:16:48;;;;;;;9.27;2.03;;;;;;;4.26;72.63;99558.53;5013869;28;20814;-75
2024/03/23 08:19:14;;;;;;;12.87;2.60;;;;;;;4.32;72.97;99557.56;5014198;28;20211;-76
2024/03/23 08:21:41;;;;;;;7.83;1.83;;;;;;;4.36;72.86;99560.09;5013858;28;20453;-76
2024/03/23 08:24:08;;;;;;;7.00;2.03;;;;;;;4.41;72.51;99557.44;5013959;28;20522;-77
2024/03/23 08:26:37;;;;;;;7.67;1.60;;;;;;;4.46;72.54;99565.13;5013574;28;20991;-76
2024/03/23 08:29:03;;;;;;;8.73;1.93;;;;;;;4.49;72.25;99547.78;5013901;28;20443;-76
2024/03/23 08:31:30;;;;;;;7.93;1.83;;;;;;;4.54;72.11;99558.91;5013876;28;20973;-75
2024/03/23 08:33:56;;;;;;;10.13;1.73;;;;;;;4.58;72.00;99560.59;5014119;28;20435;-76
2024/03/23 08:36:23;;;;;;;8.43;2.10;;;;;;;4.63;72.01;99560.50;5014024;28;20450;-77
2024/03/23 08:38:50;;;;;;;10.23;2.00;;;;;;;4.68;71.99;99560.41;5013981;28;20243;-76
2024/03/23 08:41:18;;;;;;;8.30;2.47;;;;;;;4.72;71.87;99556.88;5013901;28;20774;-77
2024/03/23 08:43:44;;;;;;;9.93;2.07;;;;;;;4.76;71.57;99563.72;5013800;28;20871;-77
2024/03/23 08:46:12;;;;;;;4.87;1.40;;;;;;;4.79;71.89;99566.28;5013479;28;20528;-76
2024/03/23 08:48:39;;;;;;;7.37;1.97;;;;;;;4.83;71.54;99561.00;5013629;28;20685;-77
2024/03/23 08:51:07;;;;;;;8.33;1.73;;;;;;;4.88;71.55;99558.31;5013919;28;20454;-78
2024/03/23 08:53:33;;;;;;;8.73;2.03;;;;;;;4.90;71.59;99559.16;5013390;28;20435;-75
2024/03/23 08:56:02;;;;;;;6.97;1.80;;;;;;;4.94;71.37;99554.78;5013935;28;20475;-75
2024/03/23 08:58:31;;;;;;;7.77;2.30;;;;;;;4.97;71.41;99547.78;5013811;28;20608;-76
2024/03/23 09:01:04;;;;;;;8.37;1.70;;;;;;;4.99;71.30;99553.81;5014645;28;20585;-78
2024/03/23 09:03:30;;;;;;;6.97;1.90;;;;;;;5.03;71.19;99550.28;5011577;28;20197;-77
2024/03/23 09:05:58;;;;;;;8.57;2.23;;;;;;;5.06;71.17;99546.75;5015093;28;20462;-80
2024/03/23 09:08:24;;;;;;;7.30;2.33;;;;;;;5.09;70.78;99546.72;5013452;28;20571;-79
2024/03/23 09:10:51;;;;;;;7.80;1.70;;;;;;;5.12;70.93;99557.03;5014792;28;20447;-79
2024/03/23 09:13:16;;;;;;;11.60;2.80;;;;;;;5.13;70.86;99545.78;5015166;28;20446;-79
2024/03/23 09:15:48;;;;;;;9.37;1.73;;;;;;;5.19;70.22;99547.38;5015175;28;20212;-79
2024/03/23 09:18:14;;;;;;;11.30;2.10;;;;;;;5.21;70.57;99546.47;5014794;28;20232;-78
2024/03/23 09:20:41;;;;;;;5.20;1.50;;;;;;;5.24;70.33;99555.94;5014559;28;20467;-79
2024/03/23 09:23:07;;;;;;;11.67;1.93;;;;;;;5.26;70.44;99552.44;5014160;28;20204;-80
2024/03/23 09:25:37;;;;;;;7.33;2.00;;;;;;;5.30;70.04;99545.44;5014049;28;20440;-78
2024/03/23 09:28:04;;;;;;;9.13;2.70;;;;;;;5.33;70.00;99555.75;5014274;28;20234;-79
2024/03/23 09:30:30;;;;;;;6.93;1.87;;;;;;;5.36;70.11;99547.03;5014347;28;20197;-78
2024/03/23 09:32:58;;;;;;;10.70;2.03;;;;;;;5.39;69.85;99547.81;5014614;28;20445;-78
2024/03/23 09:35:25;;;;;;;8.27;1.80;;;;;;;5.42;70.10;99547.75;5014730;28;20583;-78
2024/03/23 09:37:51;;;;;;;10.33;2.60;;;;;;;5.45;70.03;99539.91;5014510;28;20216;-80
2024/03/23 09:40:17;;;;;;;9.97;1.87;;;;;;;5.48;70.04;99547.63;5014224;28;20208;-78
2024/03/23 09:42:50;;;;;;;12.03;2.27;;;;;;;5.50;69.83;99543.25;5013681;28;20201;-79
2024/03/23 09:45:19;;;;;;;5.77;1.70;;;;;;;5.53;69.70;99538.00;5014136;28;20291;-79
2024/03/23 09:47:46;;;;;;;10.97;2.97;;;;;;;5.52;70.04;99531.13;5013740;28;20227;-79
2024/03/23 09:50:14;;;;;;;8.40;2.00;;;;;;;5.58;69.81;99539.66;5013126;28;20193;-78
2024/03/23 09:52:41;;;;;;;8.43;1.83;;;;;;;5.63;69.77;99541.28;5012430;28;20204;-77
2024/03/23 09:55:09;;;;;;;8.33;2.27;;;;;;;5.67;69.51;99536.84;5012661;28;20208;-76
2024/03/23 09:57:35;;;;;;;7.43;1.87;;;;;;;5.71;69.81;99541.06;5011820;28;20605;-77
2024/03/23 10:00:02;;;;;;;11.57;2.90;;;;;;;5.74;69.47;99541.00;5009944;28;20200;-77
2024/03/23 10:02:30;;;;;;;10.03;2.70;;;;;;;5.78;69.25;99534.88;5012438;28;20208;-76
2024/03/23 10:04:58;;;;;;;12.97;2.47;;;;;;;5.83;69.30;99530.44;5012443;28;20779;-77
2024/03/23 10:07:25;;;;;;;10.27;1.97;;;;;;;5.86;69.45;99535.56;5012328;28;20705;-77
2024/03/23 10:09:52;;;;;;;8.80;2.57;;;;;;;5.89;69.16;99535.47;5011830;28;20674;-77
2024/03/23 10:12:20;;;;;;;6.77;1.93;;;;;;;5.93;69.62;99536.25;5012022;28;20693;-77
2024/03/23 10:14:47;;;;;;;10.07;2.10;;;;;;;5.97;69.31;99536.16;5012117;28;20205;-77
2024/03/23 10:17:15;;;;;;;6.83;2.13;;;;;;;6.01;69.02;99528.28;5012090;28;20200;-77
2024/03/23 10:19:43;;;;;;;8.23;1.90;;;;;;;6.05;69.44;99535.94;5011437;28;20640;-78
2024/03/23 10:22:10;;;;;;;10.37;2.33;;;;;;;6.10;69.02;99534.09;5012248;28;20208;-77
2024/03/23 10:24:38;;;;;;;9.87;1.90;;;;;;;6.14;68.75;99527.97;5012473;28;20201;-76
2024/03/23 10:27:04;;;;;;;7.03;2.03;;;;;;;6.16;68.78;99528.75;5012335;28;20224;-77
2024/03/23 10:29:31;;;;;;;15.20;2.60;;;;;;;6.18;68.79;99520.94;5012493;28;20201;-79
2024/03/23 10:32:08;;;;;;;5.70;1.67;;;;;;;6.25;68.58;99521.63;5010538;28;20562;-77
2024/03/23 10:34:35;;;;;;;11.13;2.47;;;;;;;6.27;68.39;99525.91;5011473;28;20270;-78
2024/03/23 10:37:03;;;;;;;13.77;2.53;;;;;;;6.31;68.14;99531.88;5012139;28;20217;-78
2024/03/23 10:39:33;;;;;;;10.63;1.67;;;;;;;6.33;68.38;99530.94;5012236;28;20228;-78
2024/03/23 10:42:01;;;;;;;15.73;2.23;;;;;;;6.37;68.17;99523.91;5010278;28;20201;-79
2024/03/23 10:44:30;;;;;;;10.13;1.97;;;;;;;6.42;67.98;99524.66;5008882;28;20208;-78
2024/03/23 10:47:01;;;;;;;10.47;1.90;;;;;;;6.44;67.90;99523.72;5012178;28;20216;-77
2024/03/23 10:49:30;;;;;;;10.50;2.27;;;;;;;6.48;67.67;99518.44;5009020;28;20212;-78
2024/03/23 10:51:57;;;;;;;10.43;1.90;;;;;;;6.51;67.41;99513.16;5012139;28;20269;-79
2024/03/23 10:54:26;;;;;;;5.83;1.63;;;;;;;6.53;67.13;99517.44;5011858;28;20262;-77
2024/03/23 10:56:57;;;;;;;9.77;1.90;;;;;;;6.55;67.33;99515.66;5011782;28;20640;-78
2024/03/23 10:59:27;;;;;;;6.30;2.20;;;;;;;6.60;67.20;99518.16;5011624;28;20208;-78
2024/03/23 11:01:56;;;;;;;9.43;2.00;;;;;;;6.62;67.07;99513.75;5011360;28;20204;-76
2024/03/23 11:04:34;;;;;;;8.10;1.77;;;;;;;6.66;67.10;99521.44;5011551;28;20205;-77
2024/03/23 11:07:00;;;;;;;10.33;2.27;;;;;;;6.69;67.06;99515.31;5008586;28;20221;-77
2024/03/23 11:09:45;;;;;;;10.47;2.47;;;;;;;6.75;66.96;99520.31;5011876;28;20292;-77
2024/03/23 11:12:33;;;;;;;6.83;1.90;;;;;;;6.79;67.05;99519.34;5007711;28;20278;-76
2024/03/23 11:15:06;;;;;;;6.23;2.03;;;;;;;6.83;66.48;99517.53;5007936;28;20211;-77
2024/03/23 11:17:32;;;;;;;12.17;3.50;;;;;;;6.86;66.36;99513.09;5010557;28;20208;-76
2024/03/23 11:20:00;;;;;;;9.03;2.00;;;;;;;6.90;66.52;99506.06;5007656;28;20242;-76
2024/03/23 11:22:42;;;;;;;8.63;1.97;;;;;;;6.95;66.25;99511.13;5006356;28;20213;-76
2024/03/23 11:25:16;;;;;;;6.03;1.77;;;;;;;6.98;65.97;99519.69;5008782;28;20684;-76
2024/03/23 11:27:44;;;;;;;4.77;1.47;;;;;;;7.03;65.96;99511.78;5010394;28;20228;-76
2024/03/23 11:30:15;;;;;;;7.80;1.87;;;;;;;7.04;65.78;99509.13;5010060;28;20206;-73
2024/03/23 11:32:42;;;;;;;3.90;1.70;;;;;;;7.08;65.38;99504.66;5010400;28;20552;-74
2024/03/23 11:35:09;;;;;;;7.83;2.20;;;;;;;7.11;65.72;99509.78;5010042;28;20213;-76
2024/03/23 11:37:36;;;;;;;6.27;1.73;;;;;;;7.14;65.25;99508.84;5007814;28;20205;-74
2024/03/23 11:40:18;;;;;;;7.53;1.90;;;;;;;7.17;65.47;99507.03;5010155;28;20208;-73